createdAt,value
2017-06-29T00:02:46.097Z,988.86
2017-06-29T00:07:42.003Z,988.84
2017-06-29T00:12:38.824Z,988.90
2017-06-29T00:17:34.337Z,988.86
2017-06-29T00:22:31.213Z,988.77
2017-06-29T00:27:28.709Z,988.72
2017-06-29T00:32:24.465Z,988.74
2017-06-29T00:37:21.324Z,988.67
2017-06-29T00:42:17.912Z,988.64
2017-06-29T00:47:13.581Z,988.59
2017-06-29T00:52:10.582Z,988.63
2017-06-29T00:57:06.055Z,988.65
2017-06-29T01:02:03.199Z,988.60
2017-06-29T01:06:58.956Z,988.67
2017-06-29T01:11:54.902Z,988.59
2017-06-29T01:16:50.604Z,988.76
2017-06-29T01:21:46.369Z,988.71
2017-06-29T01:26:42.622Z,988.58
2017-06-29T01:31:38.588Z,988.61
2017-06-29T01:36:34.889Z,988.63
2017-06-29T01:41:31.880Z,988.53
2017-06-29T01:46:27.383Z,988.55
2017-06-29T01:51:23.180Z,988.58
2017-06-29T01:56:19.033Z,988.53
2017-06-29T02:01:16.276Z,988.56
2017-06-29T02:06:13.263Z,988.54
2017-06-29T02:11:09.023Z,988.54
2017-06-29T02:16:04.834Z,988.65
2017-06-29T02:21:01.169Z,988.67
2017-06-29T02:25:58.409Z,988.61
2017-06-29T02:30:54.813Z,988.61
2017-06-29T02:35:50.303Z,988.67
2017-06-29T02:40:46.625Z,988.54
2017-06-29T02:45:42.363Z,988.59
2017-06-29T02:50:38.933Z,988.67
2017-06-29T02:55:34.566Z,988.67
2017-06-29T03:00:30.466Z,988.54
2017-06-29T03:05:26.478Z,988.63
2017-06-29T03:10:22.343Z,988.71
2017-06-29T03:15:18.222Z,988.64
2017-06-29T03:20:14.158Z,988.64
2017-06-29T03:25:09.888Z,988.77
2017-06-29T03:30:07.706Z,988.83
2017-06-29T03:35:04.197Z,988.73
2017-06-29T03:40:00.629Z,988.76
2017-06-29T03:44:57.488Z,988.67
2017-06-29T03:49:54.868Z,988.68
2017-06-29T03:54:51.832Z,988.68
2017-06-29T03:59:48.514Z,988.62
2017-06-29T04:04:44.211Z,988.53
2017-06-29T04:09:41.661Z,988.48
2017-06-29T04:14:37.515Z,988.51
2017-06-29T04:19:34.456Z,988.46
2017-06-29T04:24:30.090Z,988.51
2017-06-29T04:29:27.315Z,988.53
2017-06-29T04:34:22.855Z,988.67
2017-06-29T04:39:20.572Z,988.70
2017-06-29T04:44:16.201Z,988.58
2017-06-29T04:49:12.595Z,988.67
2017-06-29T04:54:08.541Z,988.56
2017-06-29T04:59:04.530Z,988.63
2017-06-29T05:04:01.431Z,988.72
2017-06-29T05:08:56.982Z,988.72
2017-06-29T05:13:53.650Z,988.71
2017-06-29T05:18:51.545Z,988.81
2017-06-29T05:23:48.964Z,988.84
2017-06-29T05:28:44.595Z,988.81
2017-06-29T05:33:40.658Z,988.92
2017-06-29T05:38:36.844Z,988.81
2017-06-29T05:43:34.697Z,988.78
2017-06-29T05:48:32.680Z,988.85
2017-06-29T05:53:28.931Z,988.88
2017-06-29T05:58:24.616Z,988.78
2017-06-29T06:03:20.572Z,988.89
2017-06-29T06:08:16.531Z,988.95
2017-06-29T06:13:12.097Z,988.88
2017-06-29T06:18:07.955Z,988.85
2017-06-29T06:23:07.912Z,988.80
2017-06-29T06:28:03.437Z,988.82
2017-06-29T06:33:00.318Z,988.85
2017-06-29T06:37:56.594Z,988.84
2017-06-29T06:42:52.450Z,988.84
2017-06-29T06:47:49.478Z,989.00
2017-06-29T06:52:45.368Z,988.95
2017-06-29T06:57:41.674Z,988.97
2017-06-29T07:02:38.572Z,989.08
2017-06-29T07:07:34.020Z,989.12
2017-06-29T07:12:30.181Z,989.17
2017-06-29T07:17:25.835Z,989.19
2017-06-29T07:22:21.669Z,989.19
2017-06-29T07:27:17.560Z,989.17
2017-06-29T07:32:13.685Z,989.23
2017-06-29T07:37:09.526Z,989.26
2017-06-29T07:42:05.178Z,989.16
2017-06-29T07:47:01.466Z,989.31
2017-06-29T07:51:58.524Z,989.29
2017-06-29T07:56:53.924Z,989.35
2017-06-29T08:01:50.271Z,989.46
2017-06-29T08:06:45.559Z,989.40
2017-06-29T08:11:42.399Z,989.47
2017-06-29T08:16:37.834Z,989.55
2017-06-29T08:21:34.477Z,989.52
2017-06-29T08:26:30.971Z,989.65
2017-06-29T08:31:26.440Z,989.60
2017-06-29T08:36:21.993Z,989.67
2017-06-29T08:41:18.906Z,989.68
2017-06-29T08:46:14.824Z,989.76
2017-06-29T08:51:11.172Z,989.82
2017-06-29T08:56:08.279Z,989.75
2017-06-29T09:01:05.209Z,989.68
2017-06-29T09:06:01.814Z,989.75
2017-06-29T09:10:57.206Z,989.85
2017-06-29T09:15:52.909Z,989.88
2017-06-29T09:20:48.531Z,990.00
2017-06-29T09:25:45.835Z,989.88
2017-06-29T09:30:41.881Z,989.94
2017-06-29T09:35:38.994Z,990.00
2017-06-29T09:40:34.952Z,990.04
2017-06-29T09:45:32.165Z,990.00
2017-06-29T09:50:27.739Z,989.98
2017-06-29T09:55:23.770Z,990.09
2017-06-29T10:00:24.603Z,990.05
2017-06-29T10:05:23.264Z,990.13
2017-06-29T10:10:17.972Z,990.09
2017-06-29T10:15:14.644Z,990.23
2017-06-29T10:20:10.933Z,990.28
2017-06-29T10:25:06.782Z,990.19
2017-06-29T10:30:02.897Z,990.20
2017-06-29T10:34:58.890Z,990.20
2017-06-29T10:39:55.045Z,990.36
2017-06-29T10:44:51.638Z,990.30
2017-06-29T10:49:49.085Z,990.39
2017-06-29T10:54:46.160Z,990.35
2017-06-29T10:59:43.053Z,990.42
2017-06-29T11:04:38.810Z,990.32
2017-06-29T11:09:34.217Z,990.33
2017-06-29T11:14:29.702Z,990.36
2017-06-29T11:19:25.049Z,990.64
2017-06-29T11:24:21.170Z,990.64
2017-06-29T11:29:17.844Z,990.55
2017-06-29T11:34:15.597Z,990.70
2017-06-29T11:39:11.531Z,990.63
2017-06-29T11:44:07.657Z,990.71
2017-06-29T11:49:03.411Z,990.69
2017-06-29T11:53:58.585Z,990.81
2017-06-29T11:58:53.907Z,990.86
2017-06-29T12:03:49.488Z,990.92
2017-06-29T12:08:46.243Z,990.89
2017-06-29T12:13:41.616Z,990.96
2017-06-29T12:18:38.138Z,991.07
2017-06-29T12:28:34.062Z,991.08
2017-06-29T12:33:30.860Z,991.19
2017-06-29T12:38:27.518Z,991.16
2017-06-29T12:43:25.379Z,991.16
2017-06-29T12:48:21.857Z,991.26
2017-06-29T12:53:17.544Z,991.34
2017-06-29T12:58:15.199Z,991.34
2017-06-29T13:03:11.870Z,991.23
2017-06-29T13:08:07.440Z,991.22
2017-06-29T13:13:03.603Z,991.34
2017-06-29T13:17:59.827Z,991.47
2017-06-29T13:22:57.943Z,991.45
2017-06-29T13:27:53.420Z,991.51
2017-06-29T13:32:49.256Z,991.63
2017-06-29T13:37:46.208Z,991.67
2017-06-29T13:42:42.368Z,991.64
2017-06-29T13:47:38.651Z,991.71
2017-06-29T13:52:34.758Z,991.63
2017-06-29T13:57:32.478Z,991.71
2017-06-29T14:02:29.276Z,991.80
2017-06-29T14:07:24.944Z,991.79
2017-06-29T14:12:22.829Z,991.74
2017-06-29T14:17:18.296Z,991.78
2017-06-29T14:22:16.738Z,991.83
2017-06-29T14:27:13.245Z,991.86
2017-06-29T14:32:08.945Z,991.79
2017-06-29T14:37:04.831Z,991.90
2017-06-29T14:42:00.713Z,991.85
2017-06-29T14:46:57.690Z,991.97
2017-06-29T14:51:53.762Z,991.88
2017-06-29T14:56:50.746Z,991.84
2017-06-29T15:01:47.448Z,991.81
2017-06-29T15:06:45.399Z,991.76
2017-06-29T15:11:41.935Z,991.76
2017-06-29T15:16:38.886Z,991.83
2017-06-29T15:21:34.553Z,991.76
2017-06-29T15:26:30.233Z,991.78
2017-06-29T15:31:26.511Z,991.84
2017-06-29T15:36:23.262Z,991.84
2017-06-29T15:41:19.881Z,991.79
2017-06-29T15:46:15.368Z,991.77
2017-06-29T15:51:11.401Z,991.92
2017-06-29T15:56:08.313Z,991.90
2017-06-29T16:01:04.226Z,991.89
2017-06-29T16:06:00.393Z,991.89
2017-06-29T16:10:56.320Z,991.84
2017-06-29T16:15:52.169Z,991.87
2017-06-29T16:20:47.879Z,991.88
2017-06-29T16:25:44.058Z,991.90
2017-06-29T16:30:40.377Z,991.86
2017-06-29T16:35:36.307Z,991.87
2017-06-29T16:40:33.208Z,991.91
2017-06-29T16:45:28.621Z,991.93
2017-06-29T16:50:24.446Z,991.95
2017-06-29T16:55:21.343Z,992.00
2017-06-29T17:00:16.658Z,992.01
2017-06-29T17:05:12.444Z,992.02
2017-06-29T17:10:08.351Z,992.08
2017-06-29T17:15:05.208Z,992.04
2017-06-29T17:20:00.798Z,992.09
2017-06-29T17:24:56.485Z,992.18
2017-06-29T17:29:51.848Z,992.15
2017-06-29T17:34:47.480Z,992.24
2017-06-29T17:39:43.348Z,992.28
2017-06-29T17:44:38.974Z,992.36
2017-06-29T17:49:35.093Z,992.35
2017-06-29T17:54:33.185Z,992.43
2017-06-29T17:59:28.598Z,992.44
2017-06-29T18:04:26.414Z,992.38
2017-06-29T18:09:21.903Z,992.35
2017-06-29T18:14:17.911Z,992.43
2017-06-29T18:19:13.581Z,992.42
2017-06-29T18:24:10.359Z,992.48
2017-06-29T18:29:05.944Z,992.45
2017-06-29T18:34:01.870Z,992.45
2017-06-29T18:38:58.221Z,992.46
2017-06-29T18:43:54.513Z,992.67
2017-06-29T18:48:50.372Z,992.56
2017-06-29T18:53:47.521Z,992.59
2017-06-29T18:58:43.482Z,992.63
2017-06-29T19:03:39.178Z,992.65
2017-06-29T19:08:35.180Z,992.74
2017-06-29T19:13:31.387Z,992.81
2017-06-29T19:18:27.037Z,992.93
2017-06-29T19:23:22.876Z,993.05
2017-06-29T19:28:18.629Z,993.09
2017-06-29T19:33:14.540Z,993.15
2017-06-29T19:38:10.697Z,993.19
2017-06-29T19:43:06.527Z,993.25
2017-06-29T19:48:02.290Z,993.24
2017-06-29T19:52:59.430Z,993.22
2017-06-29T19:57:54.881Z,993.35
2017-06-29T20:02:51.686Z,993.29
2017-06-29T20:07:47.194Z,993.40
2017-06-29T20:12:42.868Z,993.46
2017-06-29T20:17:40.218Z,993.49
2017-06-29T20:22:35.877Z,993.58
2017-06-29T20:27:32.692Z,993.56
2017-06-29T20:32:28.310Z,993.71
2017-06-29T20:37:24.111Z,993.73
2017-06-29T20:42:21.218Z,993.69
2017-06-29T20:47:17.045Z,993.61
2017-06-29T20:52:14.363Z,993.59
2017-06-29T20:57:10.007Z,993.66
2017-06-29T21:02:06.379Z,993.61
2017-06-29T21:07:01.806Z,993.72
2017-06-29T21:11:58.005Z,993.70
2017-06-29T21:16:53.612Z,993.73
2017-06-29T21:21:49.718Z,993.78
2017-06-29T21:26:45.701Z,993.88
2017-06-29T21:31:41.617Z,993.86
2017-06-29T21:36:38.442Z,993.91
2017-06-29T21:41:34.342Z,993.90
2017-06-29T21:46:31.114Z,993.85
2017-06-29T21:51:26.737Z,993.84
2017-06-29T21:56:22.816Z,993.88
2017-06-29T22:01:18.647Z,993.87
2017-06-29T22:06:15.724Z,993.92
2017-06-29T22:11:12.496Z,993.96
2017-06-29T22:16:08.182Z,994.02
2017-06-29T22:21:04.304Z,993.97
2017-06-29T22:26:00.323Z,993.92
2017-06-29T22:30:56.244Z,993.93
2017-06-29T22:35:51.814Z,993.93
2017-06-29T22:40:47.676Z,993.94
2017-06-29T22:45:44.971Z,993.88
2017-06-29T22:50:40.450Z,993.92
2017-06-29T22:55:37.464Z,993.87
2017-06-29T23:00:32.763Z,993.86
2017-06-29T23:05:29.678Z,993.89
2017-06-29T23:10:25.735Z,993.91
2017-06-29T23:15:21.309Z,993.84
2017-06-29T23:20:17.464Z,993.90
2017-06-29T23:25:13.152Z,993.93
2017-06-29T23:30:09.923Z,994.01
2017-06-29T23:35:06.184Z,994.01
2017-06-29T23:40:01.693Z,993.99
2017-06-29T23:44:57.601Z,994.02
2017-06-29T23:49:53.400Z,993.97
2017-06-29T23:54:50.217Z,993.98
2017-06-29T23:59:46.834Z,994.07
